createdAt,value
2022-08-05T00:01:28.034Z,12.32
2022-08-05T00:06:33.338Z,10.80
2022-08-05T00:11:49.661Z,10.68
2022-08-05T00:16:58.478Z,11.23
2022-08-05T00:22:04.661Z,13.88
2022-08-05T00:27:10.554Z,11.52
2022-08-05T00:32:18.808Z,11.80
2022-08-05T00:37:21.229Z,11.23
2022-08-05T00:42:31.546Z,12.52
2022-08-05T00:47:57.077Z,11.38
2022-08-05T00:52:57.230Z,11.40
2022-08-05T00:58:00.065Z,12.07
2022-08-05T01:03:02.478Z,12.63
2022-08-05T01:08:40.259Z,10.97
2022-08-05T01:13:58.585Z,11.00
2022-08-05T01:19:30.381Z,13.82
2022-08-05T01:24:50.422Z,11.37
2022-08-05T01:29:55.261Z,12.17
2022-08-05T01:35:02.275Z,12.57
2022-08-05T01:40:06.760Z,12.37
2022-08-05T01:45:09.773Z,11.63
2022-08-05T01:50:17.353Z,13.17
2022-08-05T01:55:21.535Z,12.68
2022-08-05T02:00:30.348Z,12.53
2022-08-05T02:05:36.501Z,12.90
2022-08-05T02:10:51.938Z,12.07
2022-08-05T02:16:04.773Z,12.83
2022-08-05T02:21:15.018Z,14.10
2022-08-05T02:26:23.069Z,13.43
2022-08-05T02:31:35.007Z,12.47
2022-08-05T02:36:41.771Z,13.18
2022-08-05T02:41:57.843Z,13.30
2022-08-05T02:47:06.520Z,15.77
2022-08-05T02:52:30.278Z,13.30
2022-08-05T02:58:19.950Z,13.83
2022-08-05T03:02:57.847Z,13.67
2022-08-05T03:08:08.638Z,14.27
2022-08-05T03:13:16.732Z,14.03
2022-08-05T03:18:19.355Z,14.37
2022-08-05T03:23:33.665Z,12.93
2022-08-05T03:28:37.065Z,14.43
2022-08-05T03:33:51.043Z,14.53
2022-08-05T03:38:55.418Z,14.17
2022-08-05T03:44:09.235Z,15.13
2022-08-05T03:49:13.565Z,15.53
2022-08-05T03:55:34.573Z,14.43
2022-08-05T04:00:15.843Z,15.25
2022-08-05T04:05:19.163Z,14.23
2022-08-05T04:10:21.684Z,14.73
2022-08-05T04:15:24.562Z,14.32
2022-08-05T04:20:26.935Z,15.07
2022-08-05T04:25:56.472Z,14.30
2022-08-05T04:30:51.425Z,15.52
2022-08-05T04:36:10.962Z,15.45
2022-08-05T04:41:37.673Z,14.15
2022-08-05T04:46:41.087Z,14.45
2022-08-05T04:52:07.974Z,15.27
2022-08-05T04:57:37.008Z,16.13
2022-08-05T05:02:43.105Z,15.93
2022-08-05T05:07:55.230Z,17.13
2022-08-05T05:12:59.126Z,16.92
2022-08-05T05:18:28.251Z,19.27
2022-08-05T05:23:39.014Z,18.77
2022-08-05T05:28:56.295Z,18.83
2022-08-05T05:34:02.381Z,18.90
2022-08-05T05:39:05.099Z,17.85
2022-08-05T05:44:35.837Z,18.70
2022-08-05T05:49:35.558Z,19.30
2022-08-05T05:54:50.647Z,19.02
2022-08-05T05:59:53.458Z,18.95
2022-08-05T06:04:56.727Z,18.85
2022-08-05T06:10:04.791Z,17.85
2022-08-05T06:15:23.818Z,19.73
2022-08-05T06:20:26.644Z,18.98
2022-08-05T06:26:12.727Z,18.70
2022-08-05T06:30:53.225Z,18.63
2022-08-05T06:36:03.746Z,20.92
2022-08-05T06:41:11.660Z,20.73
2022-08-05T06:46:14.016Z,19.58
2022-08-05T06:56:33.421Z,20.70
2022-08-05T07:01:37.463Z,20.52
2022-08-05T07:06:43.142Z,20.05
2022-08-05T07:11:49.482Z,21.02
2022-08-05T07:18:00.931Z,20.02
2022-08-05T07:22:28.907Z,20.02
2022-08-05T07:27:57.134Z,21.25
2022-08-05T07:32:55.407Z,18.77
2022-08-05T07:37:59.629Z,18.17
2022-08-05T07:43:04.891Z,16.42
2022-08-05T07:49:02.776Z,15.30
2022-08-05T07:53:50.352Z,12.65
2022-08-05T07:58:57.530Z,13.18
2022-08-05T08:04:01.592Z,12.47
2022-08-05T08:09:04.382Z,12.00
2022-08-05T08:14:07.850Z,13.48
2022-08-05T08:19:37.938Z,11.73
2022-08-05T08:24:51.034Z,12.75
2022-08-05T08:30:05.601Z,12.65
2022-08-05T08:35:16.346Z,11.32
2022-08-05T08:40:25.593Z,10.65
2022-08-05T08:45:44.392Z,9.48
2022-08-05T08:51:03.886Z,9.95
2022-08-05T08:56:12.731Z,10.82
2022-08-05T09:01:15.776Z,9.32
2022-08-05T09:06:28.267Z,14.73
2022-08-05T09:51:19.106Z,10.43
2022-08-05T09:56:35.314Z,8.60
2022-08-05T10:01:46.332Z,9.10
2022-08-05T10:07:01.488Z,10.95
2022-08-05T10:12:18.460Z,8.70
2022-08-05T10:17:39.826Z,10.32
2022-08-05T10:22:50.690Z,9.20
2022-08-05T10:28:13.192Z,9.10
2022-08-05T10:33:24.299Z,9.50
2022-08-05T10:38:33.099Z,10.07
2022-08-05T10:44:04.741Z,9.55
2022-08-05T10:49:26.945Z,9.18
2022-08-05T10:54:56.806Z,9.80
2022-08-05T11:00:18.197Z,9.43
2022-08-05T11:05:23.508Z,9.75
2022-08-05T11:10:29.607Z,9.80
2022-08-05T11:16:00.026Z,9.88
2022-08-05T11:21:11.262Z,9.85
2022-08-05T11:26:28.545Z,10.02
2022-08-05T11:31:57.454Z,9.97
2022-08-05T11:36:54.730Z,10.13
2022-08-05T11:42:04.412Z,9.70
2022-08-05T11:52:35.201Z,10.30
2022-08-05T11:58:08.165Z,9.30
2022-08-05T12:03:29.630Z,9.60
2022-08-05T12:08:39.303Z,9.55
2022-08-05T12:13:58.771Z,9.48
2022-08-05T12:19:04.678Z,10.32
2022-08-05T12:24:14.211Z,9.85
2022-08-05T12:29:29.165Z,9.13
2022-08-05T12:34:41.532Z,10.35
2022-08-05T12:39:51.217Z,9.93
2022-08-05T12:45:08.812Z,9.68
2022-08-05T12:55:25.147Z,9.70
2022-08-05T13:02:01.313Z,9.45
2022-08-05T13:05:56.843Z,11.48
2022-08-05T13:11:02.468Z,10.93
2022-08-05T13:16:15.356Z,10.60
2022-08-05T13:21:19.289Z,11.63
2022-08-05T13:26:29.782Z,9.80
2022-08-05T13:32:05.048Z,10.35
2022-08-05T13:36:56.119Z,10.35
2022-08-05T13:41:58.864Z,10.18
2022-08-05T13:47:04.873Z,10.02
2022-08-05T13:52:18.492Z,10.05
2022-08-05T13:57:21.475Z,10.20
2022-08-05T14:02:26.558Z,10.55
2022-08-05T14:08:02.706Z,10.95
2022-08-05T14:12:58.258Z,10.02
2022-08-05T14:18:01.310Z,10.93
2022-08-05T14:23:03.783Z,10.80
2022-08-05T14:28:09.008Z,11.48
2022-08-05T14:33:56.301Z,13.77
2022-08-05T14:44:02.575Z,14.88
2022-08-05T14:49:11.814Z,15.15
2022-08-05T14:54:30.031Z,14.45
2022-08-05T14:59:35.783Z,13.50
2022-08-05T15:04:38.250Z,11.88
2022-08-05T15:09:52.045Z,14.20
2022-08-05T15:14:58.270Z,12.73
2022-08-05T15:20:01.033Z,11.93
2022-08-05T15:25:13.777Z,18.08
2022-08-05T15:30:16.858Z,15.10
2022-08-05T15:35:21.957Z,12.93
2022-08-05T15:41:20.065Z,13.35
2022-08-05T15:52:09.823Z,13.88
2022-08-05T15:56:52.113Z,15.52
2022-08-05T16:01:56.432Z,15.55
2022-08-05T16:07:03.694Z,15.73
2022-08-05T16:12:08.711Z,16.65
2022-08-05T16:17:11.867Z,13.27
2022-08-05T16:22:15.572Z,17.90
2022-08-05T16:27:32.310Z,17.75
2022-08-05T16:32:43.334Z,17.70
2022-08-05T16:38:03.379Z,21.75
2022-08-05T16:43:10.845Z,21.70
2022-08-05T16:48:25.144Z,23.52
2022-08-05T16:53:32.145Z,20.20
2022-08-05T16:58:53.198Z,21.88
2022-08-05T17:03:55.825Z,20.17
2022-08-05T17:08:58.535Z,18.08
2022-08-05T17:14:06.321Z,18.92
2022-08-05T17:19:10.759Z,18.00
2022-08-05T17:24:30.301Z,19.15
2022-08-05T17:29:41.075Z,16.60
2022-08-05T17:34:44.588Z,16.80
2022-08-05T17:39:51.510Z,17.33
2022-08-05T17:45:00.261Z,16.08
2022-08-05T17:50:12.858Z,16.50
2022-08-05T17:55:15.176Z,17.15
2022-08-05T18:00:18.508Z,18.83
2022-08-05T18:05:21.038Z,17.50
2022-08-05T18:10:23.473Z,17.55
2022-08-05T18:15:27.768Z,18.40
2022-08-05T18:20:36.302Z,17.95
2022-08-05T18:25:39.506Z,17.65
2022-08-05T18:30:52.178Z,16.13
2022-08-05T18:36:04.962Z,16.42
2022-08-05T18:41:57.289Z,15.77
2022-08-05T18:47:04.224Z,19.77
2022-08-05T18:52:32.954Z,18.83
2022-08-05T18:57:43.610Z,17.13
2022-08-05T19:02:55.386Z,17.88
2022-08-05T19:08:00.488Z,18.83
2022-08-05T19:13:03.065Z,21.58
2022-08-05T19:18:10.297Z,20.77
2022-08-05T19:24:03.825Z,25.73
2022-08-05T19:28:41.487Z,22.58
2022-08-05T19:33:48.566Z,25.05
2022-08-05T19:39:01.472Z,25.42
2022-08-05T19:44:13.761Z,21.98
2022-08-05T19:49:17.818Z,21.42
2022-08-05T19:54:26.649Z,21.50
2022-08-05T19:59:55.225Z,22.70
2022-08-05T20:04:58.815Z,25.38
2022-08-05T20:10:02.729Z,23.20
2022-08-05T20:15:14.399Z,23.38
2022-08-05T20:20:16.968Z,25.08
2022-08-05T20:25:19.385Z,27.58
2022-08-05T20:30:27.770Z,31.48
2022-08-05T20:35:31.598Z,33.13
2022-08-05T20:40:43.336Z,33.42
2022-08-05T20:45:55.915Z,38.50
2022-08-05T20:50:59.393Z,42.33
2022-08-05T20:56:10.421Z,45.80
2022-08-05T21:01:13.314Z,43.88
2022-08-05T21:06:27.901Z,39.83
2022-08-05T21:12:07.515Z,34.03
2022-08-05T21:16:53.571Z,30.33
2022-08-05T21:21:55.878Z,24.42
2022-08-05T21:26:58.881Z,22.85
2022-08-05T21:32:02.824Z,23.30
2022-08-05T21:37:05.332Z,19.77
2022-08-05T21:42:30.584Z,21.90
2022-08-05T21:47:55.139Z,20.45
2022-08-05T21:52:52.851Z,21.23
2022-08-05T21:57:55.214Z,19.60
2022-08-05T22:02:58.405Z,18.47
2022-08-05T22:08:02.229Z,17.65
2022-08-05T22:13:09.129Z,17.23
2022-08-05T22:18:27.095Z,16.80
2022-08-05T22:24:01.242Z,17.83
2022-08-05T22:29:05.993Z,18.25
2022-08-05T22:34:08.472Z,18.75
2022-08-05T22:39:21.561Z,18.05
2022-08-05T22:44:23.920Z,18.50
2022-08-05T22:50:21.399Z,18.17
2022-08-05T22:54:49.765Z,15.85
2022-08-05T22:59:54.077Z,14.98
2022-08-05T23:04:56.591Z,14.65
2022-08-05T23:10:01.173Z,14.13
2022-08-05T23:15:08.930Z,16.33
2022-08-05T23:20:16.626Z,13.82
2022-08-05T23:25:53.250Z,15.43
2022-08-05T23:30:52.805Z,13.83
2022-08-05T23:35:56.611Z,14.48
2022-08-05T23:40:58.889Z,14.33
2022-08-05T23:46:20.632Z,14.33
2022-08-05T23:51:24.235Z,14.17
2022-08-05T23:56:27.520Z,15.90
